sensor_id;sensor_type;location;lat;lon;timestamp;P1;durP1;ratioP1;P2;durP2;ratioP2
15418;SDS011;7808;43.712;23.098;2022-07-23T00:00:11;5.57;;;5.07;;
15418;SDS011;7808;43.712;23.098;2022-07-23T00:02:40;5.28;;;4.82;;
15418;SDS011;7808;43.712;23.098;2022-07-23T00:05:08;4.70;;;4.40;;
15418;SDS011;7808;43.712;23.098;2022-07-23T00:07:35;4.93;;;4.53;;
15418;SDS011;7808;43.712;23.098;2022-07-23T00:10:02;4.28;;;4.03;;
15418;SDS011;7808;43.712;23.098;2022-07-23T00:12:30;7.23;;;4.13;;
15418;SDS011;7808;43.712;23.098;2022-07-23T00:14:57;4.40;;;4.07;;
15418;SDS011;7808;43.712;23.098;2022-07-23T00:17:24;4.45;;;4.05;;
15418;SDS011;7808;43.712;23.098;2022-07-23T00:19:52;4.90;;;4.50;;
15418;SDS011;7808;43.712;23.098;2022-07-23T00:22:19;4.63;;;4.28;;
15418;SDS011;7808;43.712;23.098;2022-07-23T00:24:46;4.50;;;4.20;;
15418;SDS011;7808;43.712;23.098;2022-07-23T00:27:13;4.47;;;4.10;;
15418;SDS011;7808;43.712;23.098;2022-07-23T00:29:40;8.38;;;4.40;;
15418;SDS011;7808;43.712;23.098;2022-07-23T00:32:07;4.43;;;4.17;;
15418;SDS011;7808;43.712;23.098;2022-07-23T00:34:34;4.90;;;4.47;;
15418;SDS011;7808;43.712;23.098;2022-07-23T00:37:02;4.55;;;4.05;;
15418;SDS011;7808;43.712;23.098;2022-07-23T00:39:29;4.13;;;3.83;;
15418;SDS011;7808;43.712;23.098;2022-07-23T00:41:56;5.43;;;3.80;;
15418;SDS011;7808;43.712;23.098;2022-07-23T00:44:24;4.20;;;3.83;;
15418;SDS011;7808;43.712;23.098;2022-07-23T00:46:53;4.17;;;3.97;;
15418;SDS011;7808;43.712;23.098;2022-07-23T00:49:23;4.47;;;3.77;;
15418;SDS011;7808;43.712;23.098;2022-07-23T00:51:51;4.70;;;4.30;;
15418;SDS011;7808;43.712;23.098;2022-07-23T00:54:21;4.87;;;4.47;;
15418;SDS011;7808;43.712;23.098;2022-07-23T00:56:49;4.33;;;4.03;;
15418;SDS011;7808;43.712;23.098;2022-07-23T00:59:16;4.10;;;3.80;;
15418;SDS011;7808;43.712;23.098;2022-07-23T01:01:43;3.97;;;3.67;;
15418;SDS011;7808;43.712;23.098;2022-07-23T01:04:12;4.40;;;4.00;;
15418;SDS011;7808;43.712;23.098;2022-07-23T01:06:40;4.30;;;4.03;;
15418;SDS011;7808;43.712;23.098;2022-07-23T01:09:08;4.30;;;4.00;;
15418;SDS011;7808;43.712;23.098;2022-07-23T01:11:37;5.10;;;4.20;;
15418;SDS011;7808;43.712;23.098;2022-07-23T01:14:08;4.83;;;4.43;;
15418;SDS011;7808;43.712;23.098;2022-07-23T01:16:36;4.63;;;4.33;;
15418;SDS011;7808;43.712;23.098;2022-07-23T01:19:03;5.10;;;4.70;;
15418;SDS011;7808;43.712;23.098;2022-07-23T01:21:32;4.50;;;4.20;;
15418;SDS011;7808;43.712;23.098;2022-07-23T01:24:03;4.57;;;4.17;;
15418;SDS011;7808;43.712;23.098;2022-07-23T01:26:31;5.03;;;4.63;;
15418;SDS011;7808;43.712;23.098;2022-07-23T01:28:58;4.43;;;4.03;;
15418;SDS011;7808;43.712;23.098;2022-07-23T01:31:25;6.17;;;5.30;;
15418;SDS011;7808;43.712;23.098;2022-07-23T01:33:52;5.97;;;5.40;;
15418;SDS011;7808;43.712;23.098;2022-07-23T01:36:19;6.53;;;5.90;;
15418;SDS011;7808;43.712;23.098;2022-07-23T01:38:46;7.10;;;6.30;;
15418;SDS011;7808;43.712;23.098;2022-07-23T01:41:15;9.70;;;7.47;;
15418;SDS011;7808;43.712;23.098;2022-07-23T01:43:42;7.50;;;6.87;;
15418;SDS011;7808;43.712;23.098;2022-07-23T01:46:09;9.40;;;8.03;;
15418;SDS011;7808;43.712;23.098;2022-07-23T01:48:36;9.40;;;7.30;;
15418;SDS011;7808;43.712;23.098;2022-07-23T01:51:03;13.63;;;9.27;;
15418;SDS011;7808;43.712;23.098;2022-07-23T01:53:30;12.57;;;10.17;;
15418;SDS011;7808;43.712;23.098;2022-07-23T01:55:57;10.93;;;9.77;;
15418;SDS011;7808;43.712;23.098;2022-07-23T01:58:26;12.10;;;9.93;;
15418;SDS011;7808;43.712;23.098;2022-07-23T02:00:53;12.33;;;10.07;;
15418;SDS011;7808;43.712;23.098;2022-07-23T02:03:21;11.67;;;9.50;;
15418;SDS011;7808;43.712;23.098;2022-07-23T02:05:48;12.30;;;10.47;;
15418;SDS011;7808;43.712;23.098;2022-07-23T02:08:15;12.27;;;9.50;;
15418;SDS011;7808;43.712;23.098;2022-07-23T02:10:43;14.13;;;10.13;;
15418;SDS011;7808;43.712;23.098;2022-07-23T02:13:10;11.07;;;9.77;;
15418;SDS011;7808;43.712;23.098;2022-07-23T02:15:39;11.97;;;10.03;;
15418;SDS011;7808;43.712;23.098;2022-07-23T02:18:06;11.13;;;9.20;;
15418;SDS011;7808;43.712;23.098;2022-07-23T02:20:33;12.00;;;10.77;;
15418;SDS011;7808;43.712;23.098;2022-07-23T02:23:00;10.97;;;9.83;;
15418;SDS011;7808;43.712;23.098;2022-07-23T02:25:27;13.83;;;10.50;;
15418;SDS011;7808;43.712;23.098;2022-07-23T02:27:54;12.30;;;10.50;;
15418;SDS011;7808;43.712;23.098;2022-07-23T02:30:21;15.90;;;10.53;;
15418;SDS011;7808;43.712;23.098;2022-07-23T02:32:49;11.03;;;9.93;;
15418;SDS011;7808;43.712;23.098;2022-07-23T02:35:16;14.47;;;10.50;;
15418;SDS011;7808;43.712;23.098;2022-07-23T02:37:43;13.87;;;9.87;;
15418;SDS011;7808;43.712;23.098;2022-07-23T02:40:10;13.73;;;10.03;;
15418;SDS011;7808;43.712;23.098;2022-07-23T02:42:38;11.97;;;9.80;;
15418;SDS011;7808;43.712;23.098;2022-07-23T02:45:05;14.07;;;10.47;;
15418;SDS011;7808;43.712;23.098;2022-07-23T02:47:32;12.13;;;10.27;;
15418;SDS011;7808;43.712;23.098;2022-07-23T02:50:01;15.30;;;10.67;;
15418;SDS011;7808;43.712;23.098;2022-07-23T02:52:30;12.03;;;10.20;;
15418;SDS011;7808;43.712;23.098;2022-07-23T02:54:57;13.50;;;10.67;;
15418;SDS011;7808;43.712;23.098;2022-07-23T02:57:24;11.80;;;10.60;;
15418;SDS011;7808;43.712;23.098;2022-07-23T02:59:51;15.03;;;10.80;;
15418;SDS011;7808;43.712;23.098;2022-07-23T03:02:18;10.37;;;9.27;;
15418;SDS011;7808;43.712;23.098;2022-07-23T03:04:45;12.80;;;9.60;;
15418;SDS011;7808;43.712;23.098;2022-07-23T03:07:13;14.77;;;9.07;;
15418;SDS011;7808;43.712;23.098;2022-07-23T03:09:40;12.20;;;9.47;;
15418;SDS011;7808;43.712;23.098;2022-07-23T03:12:07;11.93;;;9.77;;
15418;SDS011;7808;43.712;23.098;2022-07-23T03:14:34;15.30;;;10.37;;
15418;SDS011;7808;43.712;23.098;2022-07-23T03:17:01;16.40;;;10.80;;
15418;SDS011;7808;43.712;23.098;2022-07-23T03:19:28;12.80;;;10.27;;
15418;SDS011;7808;43.712;23.098;2022-07-23T03:21:55;14.77;;;12.33;;
15418;SDS011;7808;43.712;23.098;2022-07-23T03:24:24;18.47;;;13.50;;
15418;SDS011;7808;43.712;23.098;2022-07-23T03:27:10;18.57;;;14.17;;
15418;SDS011;7808;43.712;23.098;2022-07-23T03:29:37;18.90;;;14.73;;
15418;SDS011;7808;43.712;23.098;2022-07-23T03:32:04;24.47;;;16.30;;
15418;SDS011;7808;43.712;23.098;2022-07-23T03:34:31;20.10;;;14.77;;
15418;SDS011;7808;43.712;23.098;2022-07-23T03:36:58;24.03;;;16.07;;
15418;SDS011;7808;43.712;23.098;2022-07-23T03:39:27;20.30;;;14.60;;
15418;SDS011;7808;43.712;23.098;2022-07-23T03:41:54;15.87;;;14.13;;
15418;SDS011;7808;43.712;23.098;2022-07-23T03:44:21;15.37;;;11.70;;
15418;SDS011;7808;43.712;23.098;2022-07-23T03:46:48;15.97;;;10.73;;
15418;SDS011;7808;43.712;23.098;2022-07-23T03:49:15;12.87;;;10.23;;
15418;SDS011;7808;43.712;23.098;2022-07-23T03:51:42;14.97;;;10.23;;
15418;SDS011;7808;43.712;23.098;2022-07-23T03:54:09;13.17;;;9.30;;
15418;SDS011;7808;43.712;23.098;2022-07-23T03:56:37;10.43;;;9.30;;
15418;SDS011;7808;43.712;23.098;2022-07-23T03:59:04;9.57;;;8.53;;
15418;SDS011;7808;43.712;23.098;2022-07-23T04:01:31;11.17;;;8.53;;
15418;SDS011;7808;43.712;23.098;2022-07-23T04:03:58;9.90;;;8.27;;
15418;SDS011;7808;43.712;23.098;2022-07-23T04:06:25;9.20;;;8.03;;
15418;SDS011;7808;43.712;23.098;2022-07-23T04:08:52;7.90;;;7.20;;
15418;SDS011;7808;43.712;23.098;2022-07-23T04:11:19;8.53;;;6.50;;
15418;SDS011;7808;43.712;23.098;2022-07-23T04:13:48;7.67;;;6.83;;
15418;SDS011;7808;43.712;23.098;2022-07-23T04:16:15;6.90;;;6.20;;
15418;SDS011;7808;43.712;23.098;2022-07-23T04:18:42;7.20;;;6.53;;
15418;SDS011;7808;43.712;23.098;2022-07-23T04:21:09;8.20;;;6.03;;
15418;SDS011;7808;43.712;23.098;2022-07-23T04:23:35;7.47;;;6.40;;
15418;SDS011;7808;43.712;23.098;2022-07-23T04:26:02;6.83;;;6.20;;
15418;SDS011;7808;43.712;23.098;2022-07-23T04:28:29;6.00;;;5.50;;
15418;SDS011;7808;43.712;23.098;2022-07-23T04:30:58;6.80;;;6.13;;
15418;SDS011;7808;43.712;23.098;2022-07-23T04:33:25;7.03;;;5.57;;
15418;SDS011;7808;43.712;23.098;2022-07-23T04:35:52;7.40;;;5.73;;
15418;SDS011;7808;43.712;23.098;2022-07-23T04:38:19;7.20;;;5.10;;
15418;SDS011;7808;43.712;23.098;2022-07-23T04:40:46;5.13;;;4.77;;
15418;SDS011;7808;43.712;23.098;2022-07-23T04:43:13;7.07;;;4.63;;
15418;SDS011;7808;43.712;23.098;2022-07-23T04:45:40;4.67;;;4.30;;
15418;SDS011;7808;43.712;23.098;2022-07-23T04:48:08;5.33;;;4.47;;
15418;SDS011;7808;43.712;23.098;2022-07-23T04:50:36;4.00;;;3.72;;
15418;SDS011;7808;43.712;23.098;2022-07-23T04:53:02;6.35;;;3.65;;
15418;SDS011;7808;43.712;23.098;2022-07-23T04:55:29;4.27;;;3.87;;
15418;SDS011;7808;43.712;23.098;2022-07-23T04:57:56;4.53;;;3.97;;
15418;SDS011;7808;43.712;23.098;2022-07-23T05:00:23;6.88;;;4.40;;
15418;SDS011;7808;43.712;23.098;2022-07-23T05:02:50;6.07;;;4.50;;
15418;SDS011;7808;43.712;23.098;2022-07-23T05:05:19;6.72;;;5.07;;
15418;SDS011;7808;43.712;23.098;2022-07-23T05:07:45;5.18;;;4.88;;
15418;SDS011;7808;43.712;23.098;2022-07-23T05:10:12;6.75;;;4.93;;
15418;SDS011;7808;43.712;23.098;2022-07-23T05:12:39;5.82;;;5.22;;
15418;SDS011;7808;43.712;23.098;2022-07-23T05:15:06;5.82;;;5.07;;
15418;SDS011;7808;43.712;23.098;2022-07-23T05:17:34;6.68;;;5.45;;
15418;SDS011;7808;43.712;23.098;2022-07-23T05:20:00;5.53;;;5.03;;
15418;SDS011;7808;43.712;23.098;2022-07-23T05:22:29;5.35;;;4.85;;
15418;SDS011;7808;43.712;23.098;2022-07-23T05:24:56;5.85;;;5.35;;
15418;SDS011;7808;43.712;23.098;2022-07-23T05:27:23;5.75;;;5.15;;
15418;SDS011;7808;43.712;23.098;2022-07-23T05:29:50;6.15;;;5.47;;
15418;SDS011;7808;43.712;23.098;2022-07-23T05:32:17;6.20;;;5.45;;
15418;SDS011;7808;43.712;23.098;2022-07-23T05:34:44;9.90;;;5.80;;
15418;SDS011;7808;43.712;23.098;2022-07-23T05:37:11;7.65;;;6.95;;
15418;SDS011;7808;43.712;23.098;2022-07-23T05:39:39;8.95;;;6.97;;
15418;SDS011;7808;43.712;23.098;2022-07-23T05:42:06;9.93;;;8.88;;
15418;SDS011;7808;43.712;23.098;2022-07-23T05:44:33;13.68;;;10.52;;
15418;SDS011;7808;43.712;23.098;2022-07-23T05:47:00;11.95;;;9.70;;
15418;SDS011;7808;43.712;23.098;2022-07-23T05:49:27;12.75;;;9.60;;
15418;SDS011;7808;43.712;23.098;2022-07-23T05:51:54;9.23;;;8.23;;
15418;SDS011;7808;43.712;23.098;2022-07-23T05:54:21;9.15;;;8.00;;
15418;SDS011;7808;43.712;23.098;2022-07-23T05:56:49;9.57;;;7.30;;
15418;SDS011;7808;43.712;23.098;2022-07-23T05:59:17;8.75;;;7.85;;
15418;SDS011;7808;43.712;23.098;2022-07-23T06:01:44;7.15;;;5.82;;
15418;SDS011;7808;43.712;23.098;2022-07-23T06:04:11;6.18;;;5.55;;
15418;SDS011;7808;43.712;23.098;2022-07-23T06:06:38;8.32;;;6.78;;
15418;SDS011;7808;43.712;23.098;2022-07-23T06:09:05;7.57;;;6.88;;
15418;SDS011;7808;43.712;23.098;2022-07-23T06:11:32;6.28;;;5.68;;
15418;SDS011;7808;43.712;23.098;2022-07-23T06:14:01;5.97;;;5.57;;
15418;SDS011;7808;43.712;23.098;2022-07-23T06:16:28;10.10;;;5.70;;
15418;SDS011;7808;43.712;23.098;2022-07-23T06:18:55;6.25;;;5.20;;
15418;SDS011;7808;43.712;23.098;2022-07-23T06:21:22;6.25;;;5.07;;
15418;SDS011;7808;43.712;23.098;2022-07-23T06:23:48;5.50;;;5.05;;
15418;SDS011;7808;43.712;23.098;2022-07-23T06:26:15;5.40;;;4.95;;
15418;SDS011;7808;43.712;23.098;2022-07-23T06:28:42;5.32;;;4.82;;
15418;SDS011;7808;43.712;23.098;2022-07-23T06:31:11;5.43;;;4.95;;
15418;SDS011;7808;43.712;23.098;2022-07-23T06:33:38;5.53;;;5.13;;
15418;SDS011;7808;43.712;23.098;2022-07-23T06:36:05;5.05;;;4.55;;
15418;SDS011;7808;43.712;23.098;2022-07-23T06:38:32;4.97;;;4.60;;
15418;SDS011;7808;43.712;23.098;2022-07-23T06:40:59;6.35;;;4.53;;
15418;SDS011;7808;43.712;23.098;2022-07-23T06:43:26;4.80;;;4.50;;
15418;SDS011;7808;43.712;23.098;2022-07-23T06:45:53;5.95;;;4.80;;
15418;SDS011;7808;43.712;23.098;2022-07-23T06:48:21;4.80;;;4.50;;
15418;SDS011;7808;43.712;23.098;2022-07-23T06:50:48;4.93;;;4.57;;
15418;SDS011;7808;43.712;23.098;2022-07-23T06:53:17;6.25;;;5.15;;
15418;SDS011;7808;43.712;23.098;2022-07-23T06:55:44;4.50;;;4.10;;
15418;SDS011;7808;43.712;23.098;2022-07-23T06:58:11;4.05;;;3.75;;
15418;SDS011;7808;43.712;23.098;2022-07-23T07:00:39;4.43;;;4.07;;
15418;SDS011;7808;43.712;23.098;2022-07-23T07:03:06;5.25;;;4.35;;
15418;SDS011;7808;43.712;23.098;2022-07-23T07:05:34;4.55;;;4.25;;
15418;SDS011;7808;43.712;23.098;2022-07-23T07:08:01;3.53;;;3.22;;
15418;SDS011;7808;43.712;23.098;2022-07-23T07:10:28;4.30;;;4.00;;
15418;SDS011;7808;43.712;23.098;2022-07-23T07:12:55;4.00;;;3.70;;
15418;SDS011;7808;43.712;23.098;2022-07-23T07:15:22;4.20;;;3.80;;
15418;SDS011;7808;43.712;23.098;2022-07-23T07:17:49;4.40;;;4.00;;
15418;SDS011;7808;43.712;23.098;2022-07-23T07:20:16;3.97;;;3.58;;
15418;SDS011;7808;43.712;23.098;2022-07-23T07:22:45;3.72;;;3.45;;
15418;SDS011;7808;43.712;23.098;2022-07-23T07:25:11;3.67;;;3.38;;
15418;SDS011;7808;43.712;23.098;2022-07-23T07:27:38;3.65;;;3.50;;
15418;SDS011;7808;43.712;23.098;2022-07-23T07:30:06;5.88;;;4.10;;
15418;SDS011;7808;43.712;23.098;2022-07-23T07:32:34;3.90;;;3.58;;
15418;SDS011;7808;43.712;23.098;2022-07-23T07:35:01;4.10;;;3.80;;
15418;SDS011;7808;43.712;23.098;2022-07-23T07:37:29;4.00;;;3.75;;
15418;SDS011;7808;43.712;23.098;2022-07-23T07:39:57;4.00;;;3.70;;
15418;SDS011;7808;43.712;23.098;2022-07-23T07:42:24;3.90;;;3.58;;
15418;SDS011;7808;43.712;23.098;2022-07-23T07:44:51;3.95;;;3.75;;
15418;SDS011;7808;43.712;23.098;2022-07-23T07:47:18;4.15;;;3.78;;
15418;SDS011;7808;43.712;23.098;2022-07-23T07:49:45;4.10;;;3.72;;
15418;SDS011;7808;43.712;23.098;2022-07-23T07:52:12;4.05;;;3.75;;
15418;SDS011;7808;43.712;23.098;2022-07-23T07:54:39;3.63;;;3.42;;
15418;SDS011;7808;43.712;23.098;2022-07-23T07:57:07;4.22;;;3.78;;
15418;SDS011;7808;43.712;23.098;2022-07-23T07:59:34;3.83;;;3.60;;
15418;SDS011;7808;43.712;23.098;2022-07-23T08:02:01;3.78;;;3.58;;
15418;SDS011;7808;43.712;23.098;2022-07-23T08:04:28;4.18;;;3.83;;
15418;SDS011;7808;43.712;23.098;2022-07-23T08:06:55;4.78;;;3.67;;
15418;SDS011;7808;43.712;23.098;2022-07-23T08:09:22;3.95;;;3.70;;
15418;SDS011;7808;43.712;23.098;2022-07-23T08:11:48;4.07;;;3.85;;
15418;SDS011;7808;43.712;23.098;2022-07-23T08:14:18;3.58;;;3.38;;
15418;SDS011;7808;43.712;23.098;2022-07-23T08:16:45;4.00;;;3.70;;
15418;SDS011;7808;43.712;23.098;2022-07-23T08:19:12;3.83;;;3.58;;
15418;SDS011;7808;43.712;23.098;2022-07-23T08:21:39;3.75;;;3.55;;
15418;SDS011;7808;43.712;23.098;2022-07-23T08:24:06;3.97;;;3.70;;
15418;SDS011;7808;43.712;23.098;2022-07-23T08:26:33;3.72;;;3.28;;
15418;SDS011;7808;43.712;23.098;2022-07-23T08:29:00;9.65;;;3.83;;
15418;SDS011;7808;43.712;23.098;2022-07-23T08:31:28;5.03;;;3.60;;
15418;SDS011;7808;43.712;23.098;2022-07-23T08:33:55;3.65;;;3.50;;
15418;SDS011;7808;43.712;23.098;2022-07-23T08:36:22;3.50;;;3.20;;
15418;SDS011;7808;43.712;23.098;2022-07-23T08:38:49;4.22;;;3.60;;
15418;SDS011;7808;43.712;23.098;2022-07-23T08:41:16;4.07;;;3.67;;
15418;SDS011;7808;43.712;23.098;2022-07-23T08:43:43;7.97;;;4.40;;
15418;SDS011;7808;43.712;23.098;2022-07-23T08:46:11;3.40;;;3.22;;
15418;SDS011;7808;43.712;23.098;2022-07-23T08:48:40;4.03;;;3.78;;
15418;SDS011;7808;43.712;23.098;2022-07-23T08:51:08;4.00;;;3.70;;
15418;SDS011;7808;43.712;23.098;2022-07-23T08:53:35;3.90;;;3.55;;
15418;SDS011;7808;43.712;23.098;2022-07-23T08:56:04;4.15;;;3.67;;
15418;SDS011;7808;43.712;23.098;2022-07-23T08:58:31;4.38;;;4.10;;
15418;SDS011;7808;43.712;23.098;2022-07-23T09:00:58;4.22;;;3.88;;
15418;SDS011;7808;43.712;23.098;2022-07-23T09:03:26;4.05;;;3.75;;
15418;SDS011;7808;43.712;23.098;2022-07-23T09:05:56;3.90;;;3.70;;
15418;SDS011;7808;43.712;23.098;2022-07-23T09:08:24;3.83;;;3.70;;
15418;SDS011;7808;43.712;23.098;2022-07-23T09:10:53;4.25;;;4.05;;
15418;SDS011;7808;43.712;23.098;2022-07-23T09:13:25;4.20;;;4.00;;
15418;SDS011;7808;43.712;23.098;2022-07-23T09:15:55;4.43;;;4.13;;
15418;SDS011;7808;43.712;23.098;2022-07-23T09:18:37;4.22;;;3.92;;
15418;SDS011;7808;43.712;23.098;2022-07-23T09:21:21;4.15;;;3.90;;
15418;SDS011;7808;43.712;23.098;2022-07-23T09:23:53;4.07;;;3.83;;
15418;SDS011;7808;43.712;23.098;2022-07-23T09:26:27;4.40;;;4.10;;
15418;SDS011;7808;43.712;23.098;2022-07-23T09:29:00;4.15;;;3.75;;
15418;SDS011;7808;43.712;23.098;2022-07-23T09:31:48;5.18;;;4.00;;
15418;SDS011;7808;43.712;23.098;2022-07-23T09:34:17;4.05;;;3.83;;
15418;SDS011;7808;43.712;23.098;2022-07-23T09:36:47;3.75;;;3.30;;
15418;SDS011;7808;43.712;23.098;2022-07-23T09:39:15;3.78;;;3.58;;
15418;SDS011;7808;43.712;23.098;2022-07-23T09:41:50;3.83;;;3.60;;
15418;SDS011;7808;43.712;23.098;2022-07-23T09:44:18;4.03;;;3.78;;
15418;SDS011;7808;43.712;23.098;2022-07-23T09:46:46;4.57;;;4.30;;
15418;SDS011;7808;43.712;23.098;2022-07-23T09:49:16;6.32;;;4.13;;
15418;SDS011;7808;43.712;23.098;2022-07-23T09:51:47;4.43;;;4.05;;
15418;SDS011;7808;43.712;23.098;2022-07-23T09:54:21;5.55;;;3.90;;
15418;SDS011;7808;43.712;23.098;2022-07-23T09:56:57;4.57;;;4.18;;
15418;SDS011;7808;43.712;23.098;2022-07-23T09:59:27;4.60;;;4.10;;
15418;SDS011;7808;43.712;23.098;2022-07-23T10:01:56;4.07;;;3.78;;
15418;SDS011;7808;43.712;23.098;2022-07-23T10:04:25;4.15;;;3.88;;
15418;SDS011;7808;43.712;23.098;2022-07-23T10:06:55;6.50;;;4.30;;
15418;SDS011;7808;43.712;23.098;2022-07-23T10:09:27;4.05;;;3.80;;
15418;SDS011;7808;43.712;23.098;2022-07-23T10:11:55;5.43;;;4.80;;
15418;SDS011;7808;43.712;23.098;2022-07-23T10:14:31;4.78;;;4.38;;
15418;SDS011;7808;43.712;23.098;2022-07-23T10:17:00;4.07;;;3.88;;
15418;SDS011;7808;43.712;23.098;2022-07-23T10:19:28;4.55;;;4.10;;
15418;SDS011;7808;43.712;23.098;2022-07-23T10:21:57;4.25;;;3.85;;
15418;SDS011;7808;43.712;23.098;2022-07-23T10:24:33;4.10;;;3.80;;
15418;SDS011;7808;43.712;23.098;2022-07-23T10:27:12;4.18;;;3.88;;
15418;SDS011;7808;43.712;23.098;2022-07-23T10:29:55;4.18;;;3.88;;
15418;SDS011;7808;43.712;23.098;2022-07-23T10:32:31;4.43;;;4.05;;
15418;SDS011;7808;43.712;23.098;2022-07-23T10:35:09;4.78;;;4.07;;
15418;SDS011;7808;43.712;23.098;2022-07-23T10:37:45;3.90;;;3.70;;
15418;SDS011;7808;43.712;23.098;2022-07-23T10:40:16;4.15;;;3.75;;
15418;SDS011;7808;43.712;23.098;2022-07-23T10:42:44;4.57;;;4.28;;
15418;SDS011;7808;43.712;23.098;2022-07-23T10:45:27;4.20;;;4.00;;
15418;SDS011;7808;43.712;23.098;2022-07-23T10:48:11;4.57;;;4.22;;
15418;SDS011;7808;43.712;23.098;2022-07-23T10:50:41;4.15;;;3.85;;
15418;SDS011;7808;43.712;23.098;2022-07-23T10:53:15;3.85;;;3.63;;
15418;SDS011;7808;43.712;23.098;2022-07-23T10:55:44;4.70;;;4.32;;
15418;SDS011;7808;43.712;23.098;2022-07-23T10:58:17;5.72;;;4.32;;
15418;SDS011;7808;43.712;23.098;2022-07-23T11:00:46;4.20;;;3.90;;
15418;SDS011;7808;43.712;23.098;2022-07-23T11:03:30;4.28;;;4.00;;
15418;SDS011;7808;43.712;23.098;2022-07-23T11:06:01;3.75;;;3.55;;
15418;SDS011;7808;43.712;23.098;2022-07-23T11:08:29;10.70;;;3.80;;
15418;SDS011;7808;43.712;23.098;2022-07-23T11:11:07;5.20;;;4.80;;
15418;SDS011;7808;43.712;23.098;2022-07-23T11:13:43;4.28;;;4.03;;
15418;SDS011;7808;43.712;23.098;2022-07-23T11:16:21;4.13;;;3.92;;
15418;SDS011;7808;43.712;23.098;2022-07-23T11:18:57;4.45;;;3.50;;
15418;SDS011;7808;43.712;23.098;2022-07-23T11:21:42;3.80;;;3.50;;
15418;SDS011;7808;43.712;23.098;2022-07-23T11:24:18;3.45;;;3.25;;
15418;SDS011;7808;43.712;23.098;2022-07-23T11:26:48;4.53;;;3.72;;
15418;SDS011;7808;43.712;23.098;2022-07-23T11:29:45;4.63;;;3.75;;
15418;SDS011;7808;43.712;23.098;2022-07-23T11:32:30;4.18;;;3.92;;
15418;SDS011;7808;43.712;23.098;2022-07-23T11:35:00;6.20;;;3.75;;
15418;SDS011;7808;43.712;23.098;2022-07-23T11:37:29;4.03;;;3.65;;
15418;SDS011;7808;43.712;23.098;2022-07-23T11:40:02;3.75;;;3.50;;
15418;SDS011;7808;43.712;23.098;2022-07-23T11:42:33;3.53;;;3.33;;
15418;SDS011;7808;43.712;23.098;2022-07-23T11:45:01;3.80;;;3.60;;
15418;SDS011;7808;43.712;23.098;2022-07-23T11:47:28;3.92;;;3.72;;
15418;SDS011;7808;43.712;23.098;2022-07-23T11:49:56;3.90;;;3.70;;
15418;SDS011;7808;43.712;23.098;2022-07-23T11:52:28;3.70;;;3.50;;
15418;SDS011;7808;43.712;23.098;2022-07-23T11:54:56;4.30;;;4.00;;
15418;SDS011;7808;43.712;23.098;2022-07-23T11:57:27;3.92;;;3.58;;
15418;SDS011;7808;43.712;23.098;2022-07-23T11:59:56;4.10;;;3.80;;
15418;SDS011;7808;43.712;23.098;2022-07-23T12:02:24;3.83;;;3.58;;
15418;SDS011;7808;43.712;23.098;2022-07-23T12:04:52;4.10;;;3.80;;
15418;SDS011;7808;43.712;23.098;2022-07-23T12:07:26;3.42;;;3.25;;
15418;SDS011;7808;43.712;23.098;2022-07-23T12:09:56;3.72;;;3.53;;
15418;SDS011;7808;43.712;23.098;2022-07-23T12:12:24;3.90;;;3.70;;
15418;SDS011;7808;43.712;23.098;2022-07-23T12:14:53;3.78;;;3.55;;
15418;SDS011;7808;43.712;23.098;2022-07-23T12:17:21;3.72;;;3.42;;
15418;SDS011;7808;43.712;23.098;2022-07-23T12:19:54;4.15;;;3.67;;
15418;SDS011;7808;43.712;23.098;2022-07-23T12:22:22;4.03;;;3.72;;
15418;SDS011;7808;43.712;23.098;2022-07-23T12:24:56;3.70;;;3.50;;
15418;SDS011;7808;43.712;23.098;2022-07-23T12:27:24;3.88;;;3.55;;
15418;SDS011;7808;43.712;23.098;2022-07-23T12:29:53;3.42;;;3.13;;
15418;SDS011;7808;43.712;23.098;2022-07-23T12:32:20;3.90;;;3.60;;
15418;SDS011;7808;43.712;23.098;2022-07-23T12:34:49;3.75;;;3.55;;
15418;SDS011;7808;43.712;23.098;2022-07-23T12:37:30;3.67;;;3.47;;
15418;SDS011;7808;43.712;23.098;2022-07-23T12:39:58;3.67;;;3.42;;
15418;SDS011;7808;43.712;23.098;2022-07-23T12:42:44;3.30;;;3.20;;
15418;SDS011;7808;43.712;23.098;2022-07-23T12:45:12;3.92;;;3.45;;
15418;SDS011;7808;43.712;23.098;2022-07-23T12:47:59;3.55;;;3.35;;
15418;SDS011;7808;43.712;23.098;2022-07-23T12:53:26;3.65;;;3.55;;
15418;SDS011;7808;43.712;23.098;2022-07-23T12:55:59;4.00;;;3.70;;
15418;SDS011;7808;43.712;23.098;2022-07-23T12:58:38;3.80;;;3.60;;
15418;SDS011;7808;43.712;23.098;2022-07-23T13:01:08;3.95;;;3.58;;
15418;SDS011;7808;43.712;23.098;2022-07-23T13:03:55;3.80;;;3.50;;
15418;SDS011;7808;43.712;23.098;2022-07-23T13:06:23;3.80;;;3.60;;
15418;SDS011;7808;43.712;23.098;2022-07-23T13:08:50;3.75;;;3.50;;
15418;SDS011;7808;43.712;23.098;2022-07-23T13:11:17;3.90;;;3.70;;
15418;SDS011;7808;43.712;23.098;2022-07-23T13:13:44;3.58;;;3.40;;
15418;SDS011;7808;43.712;23.098;2022-07-23T13:16:12;3.85;;;3.50;;
15418;SDS011;7808;43.712;23.098;2022-07-23T13:18:39;4.05;;;3.67;;
15418;SDS011;7808;43.712;23.098;2022-07-23T13:21:06;4.78;;;3.50;;
15418;SDS011;7808;43.712;23.098;2022-07-23T13:23:34;4.57;;;3.63;;
15418;SDS011;7808;43.712;23.098;2022-07-23T13:26:01;3.50;;;3.30;;
15418;SDS011;7808;43.712;23.098;2022-07-23T13:28:29;3.92;;;3.63;;
15418;SDS011;7808;43.712;23.098;2022-07-23T13:30:56;3.78;;;3.47;;
15418;SDS011;7808;43.712;23.098;2022-07-23T13:33:24;3.92;;;3.72;;
15418;SDS011;7808;43.712;23.098;2022-07-23T13:35:52;4.38;;;4.03;;
15418;SDS011;7808;43.712;23.098;2022-07-23T13:38:20;4.13;;;3.75;;
15418;SDS011;7808;43.712;23.098;2022-07-23T13:40:48;3.53;;;3.33;;
15418;SDS011;7808;43.712;23.098;2022-07-23T13:43:17;3.70;;;3.45;;
15418;SDS011;7808;43.712;23.098;2022-07-23T13:45:45;4.10;;;3.60;;
15418;SDS011;7808;43.712;23.098;2022-07-23T13:48:13;3.75;;;3.47;;
15418;SDS011;7808;43.712;23.098;2022-07-23T13:50:42;3.78;;;3.58;;
15418;SDS011;7808;43.712;23.098;2022-07-23T13:53:10;4.20;;;3.80;;
15418;SDS011;7808;43.712;23.098;2022-07-23T13:55:39;3.67;;;3.47;;
15418;SDS011;7808;43.712;23.098;2022-07-23T13:58:07;4.20;;;3.80;;
15418;SDS011;7808;43.712;23.098;2022-07-23T14:00:35;3.92;;;3.70;;
15418;SDS011;7808;43.712;23.098;2022-07-23T14:03:04;3.70;;;3.20;;
15418;SDS011;7808;43.712;23.098;2022-07-23T14:05:31;3.63;;;3.45;;
15418;SDS011;7808;43.712;23.098;2022-07-23T14:08:00;3.65;;;3.45;;
15418;SDS011;7808;43.712;23.098;2022-07-23T14:10:28;3.80;;;3.55;;
15418;SDS011;7808;43.712;23.098;2022-07-23T14:12:55;3.83;;;3.53;;
15418;SDS011;7808;43.712;23.098;2022-07-23T14:15:23;3.90;;;3.70;;
15418;SDS011;7808;43.712;23.098;2022-07-23T14:17:51;4.20;;;3.90;;
15418;SDS011;7808;43.712;23.098;2022-07-23T14:20:19;3.75;;;3.55;;
15418;SDS011;7808;43.712;23.098;2022-07-23T14:22:46;5.25;;;3.45;;
15418;SDS011;7808;43.712;23.098;2022-07-23T14:25:16;4.03;;;3.78;;
15418;SDS011;7808;43.712;23.098;2022-07-23T14:27:43;4.03;;;3.72;;
15418;SDS011;7808;43.712;23.098;2022-07-23T14:30:11;4.40;;;4.10;;
15418;SDS011;7808;43.712;23.098;2022-07-23T14:32:40;3.92;;;3.53;;
15418;SDS011;7808;43.712;23.098;2022-07-23T14:35:07;3.88;;;3.67;;
15418;SDS011;7808;43.712;23.098;2022-07-23T14:37:34;4.18;;;3.88;;
15418;SDS011;7808;43.712;23.098;2022-07-23T14:40:01;4.45;;;3.90;;
15418;SDS011;7808;43.712;23.098;2022-07-23T14:42:30;4.30;;;3.90;;
15418;SDS011;7808;43.712;23.098;2022-07-23T14:44:57;7.57;;;4.00;;
15418;SDS011;7808;43.712;23.098;2022-07-23T14:47:24;4.07;;;3.78;;
15418;SDS011;7808;43.712;23.098;2022-07-23T14:49:51;3.55;;;3.25;;
15418;SDS011;7808;43.712;23.098;2022-07-23T14:52:18;3.67;;;3.38;;
15418;SDS011;7808;43.712;23.098;2022-07-23T14:54:45;4.30;;;3.90;;